sensor_id;sensor_type;location;lat;lon;timestamp;pressure;altitude;pressure_sealevel;temperature;humidity
21863;BME280;11096;51.338;12.524;2023-02-14T12:12:50;101984.25;;;16.66;52.26
21863;BME280;11096;51.338;12.524;2023-02-14T12:15:29;101983.22;;;17.09;51.38
21863;BME280;11096;51.338;12.524;2023-02-14T12:31:36;101974.16;;;15.63;51.57
21863;BME280;11096;51.338;12.524;2023-02-14T12:34:02;101977.72;;;15.17;52.30
21863;BME280;11096;51.338;12.524;2023-02-14T12:39:17;101970.81;;;14.24;54.04
21863;BME280;11096;51.338;12.524;2023-02-14T12:42:02;101971.66;;;14.41;54.29
21863;BME280;11096;51.338;12.524;2023-02-14T13:06:36;101944.47;;;13.80;55.86
21863;BME280;11096;51.338;12.524;2023-02-14T13:12:34;101927.81;;;15.35;53.47
21863;BME280;11096;51.338;12.524;2023-02-14T13:18:07;101918.78;;;18.52;45.89
21863;BME280;11096;51.338;12.524;2023-02-14T13:21:00;101911.47;;;18.80;44.02
21863;BME280;11096;51.338;12.524;2023-02-14T13:23:35;101906.78;;;18.48;44.46
21863;BME280;11096;51.338;12.524;2023-02-14T13:26:05;101908.78;;;18.69;43.95
21863;BME280;11096;51.338;12.524;2023-02-14T13:28:32;101904.00;;;19.43;43.06
21863;BME280;11096;51.338;12.524;2023-02-14T13:31:00;101901.13;;;20.23;41.38
21863;BME280;11096;51.338;12.524;2023-02-14T13:33:31;101897.94;;;19.97;41.62
21863;BME280;11096;51.338;12.524;2023-02-14T13:36:00;101908.06;;;19.36;42.03
21863;BME280;11096;51.338;12.524;2023-02-14T13:38:27;101899.03;;;18.47;42.56
21863;BME280;11096;51.338;12.524;2023-02-14T13:40:56;101902.97;;;18.17;44.00
21863;BME280;11096;51.338;12.524;2023-02-14T13:43:45;101903.16;;;19.20;42.52
21863;BME280;11096;51.338;12.524;2023-02-14T13:46:11;101901.56;;;18.83;42.56
21863;BME280;11096;51.338;12.524;2023-02-14T13:48:37;101903.72;;;18.06;43.31
21863;BME280;11096;51.338;12.524;2023-02-14T13:51:08;101900.03;;;17.72;44.20
21863;BME280;11096;51.338;12.524;2023-02-14T13:56:02;101895.38;;;17.13;45.78
21863;BME280;11096;51.338;12.524;2023-02-14T13:58:27;101886.88;;;17.09;46.12
21863;BME280;11096;51.338;12.524;2023-02-14T14:00:54;101884.56;;;16.12;47.39
21863;BME280;11096;51.338;12.524;2023-02-14T14:19:02;101877.47;;;15.44;49.39
21863;BME280;11096;51.338;12.524;2023-02-14T14:24:22;101882.69;;;15.58;49.68
21863;BME280;11096;51.338;12.524;2023-02-14T14:29:54;101887.75;;;15.33;50.03
21863;BME280;11096;51.338;12.524;2023-02-14T14:32:36;101878.88;;;15.50;49.93
21863;BME280;11096;51.338;12.524;2023-02-14T14:37:52;101875.75;;;14.09;51.43
21863;BME280;11096;51.338;12.524;2023-02-14T14:40:22;101877.28;;;12.47;54.80
21863;BME280;11096;51.338;12.524;2023-02-14T14:42:49;101881.78;;;12.26;55.82
21863;BME280;11096;51.338;12.524;2023-02-14T14:45:23;101878.50;;;12.57;56.21
21863;BME280;11096;51.338;12.524;2023-02-14T14:47:51;101880.66;;;12.84;55.98
21863;BME280;11096;51.338;12.524;2023-02-14T14:50:22;101875.28;;;12.87;55.69
21863;BME280;11096;51.338;12.524;2023-02-14T14:52:50;101872.06;;;12.82;55.67
21863;BME280;11096;51.338;12.524;2023-02-14T14:55:44;101870.25;;;12.49;56.23
21863;BME280;11096;51.338;12.524;2023-02-14T15:00:57;101862.56;;;12.81;55.34
21863;BME280;11096;51.338;12.524;2023-02-14T15:03:26;101868.91;;;13.10;55.05
21863;BME280;11096;51.338;12.524;2023-02-14T15:06:05;101862.53;;;12.98;55.35
21863;BME280;11096;51.338;12.524;2023-02-14T15:08:32;101864.09;;;12.50;56.15
21863;BME280;11096;51.338;12.524;2023-02-14T15:11:20;101869.09;;;12.55;56.24
21863;BME280;11096;51.338;12.524;2023-02-14T15:14:08;101864.53;;;11.87;57.39
21863;BME280;11096;51.338;12.524;2023-02-14T15:16:45;101865.84;;;11.96;57.43
21863;BME280;11096;51.338;12.524;2023-02-14T15:19:43;101865.19;;;11.34;58.58
21863;BME280;11096;51.338;12.524;2023-02-14T15:24:59;101864.25;;;10.75;61.23
21863;BME280;11096;51.338;12.524;2023-02-14T15:27:26;101860.50;;;10.82;60.83
21863;BME280;11096;51.338;12.524;2023-02-14T15:30:04;101857.56;;;10.90;60.77
21863;BME280;11096;51.338;12.524;2023-02-14T15:32:33;101856.84;;;10.86;60.72
21863;BME280;11096;51.338;12.524;2023-02-14T15:35:04;101854.25;;;10.66;61.29
21863;BME280;11096;51.338;12.524;2023-02-14T15:37:31;101858.41;;;10.49;61.95
21863;BME280;11096;51.338;12.524;2023-02-14T15:39:57;101854.47;;;10.17;62.11
21863;BME280;11096;51.338;12.524;2023-02-14T15:42:24;101855.66;;;10.08;62.79
21863;BME280;11096;51.338;12.524;2023-02-14T15:45:21;101852.19;;;10.09;63.04
21863;BME280;11096;51.338;12.524;2023-02-14T15:47:52;101848.75;;;9.87;63.31
21863;BME280;11096;51.338;12.524;2023-02-14T15:50:29;101839.69;;;9.97;63.57
21863;BME280;11096;51.338;12.524;2023-02-14T15:53:07;101845.66;;;9.99;63.44
21863;BME280;11096;51.338;12.524;2023-02-14T15:55:34;101840.09;;;10.08;63.26
21863;BME280;11096;51.338;12.524;2023-02-14T15:58:17;101839.13;;;9.89;63.53
21863;BME280;11096;51.338;12.524;2023-02-14T16:00:45;101841.91;;;9.62;63.97
21863;BME280;11096;51.338;12.524;2023-02-14T16:03:17;101837.25;;;9.47;64.63
21863;BME280;11096;51.338;12.524;2023-02-14T16:05:48;101838.00;;;9.27;65.14
21863;BME280;11096;51.338;12.524;2023-02-14T16:08:35;101835.28;;;9.07;65.80
21863;BME280;11096;51.338;12.524;2023-02-14T16:11:11;101840.53;;;9.52;65.03
21863;BME280;11096;51.338;12.524;2023-02-14T16:13:43;101838.28;;;9.43;64.90
21863;BME280;11096;51.338;12.524;2023-02-14T16:16:11;101838.78;;;9.29;65.23
21863;BME280;11096;51.338;12.524;2023-02-14T16:23:47;101836.16;;;9.06;65.56
21863;BME280;11096;51.338;12.524;2023-02-14T16:29:10;101832.28;;;8.94;66.07
21863;BME280;11096;51.338;12.524;2023-02-14T16:31:45;101825.81;;;8.80;66.79
21863;BME280;11096;51.338;12.524;2023-02-14T16:34:13;101831.81;;;8.56;66.68
21863;BME280;11096;51.338;12.524;2023-02-14T16:36:39;101828.22;;;8.33;67.82
21863;BME280;11096;51.338;12.524;2023-02-14T16:39:05;101834.69;;;8.73;67.27
21863;BME280;11096;51.338;12.524;2023-02-14T16:41:35;101832.25;;;8.69;66.69
21863;BME280;11096;51.338;12.524;2023-02-14T16:44:01;101834.41;;;8.56;66.72
21863;BME280;11096;51.338;12.524;2023-02-14T16:46:31;101828.25;;;8.60;67.19
21863;BME280;11096;51.338;12.524;2023-02-14T16:48:59;101837.41;;;8.44;67.11
21863;BME280;11096;51.338;12.524;2023-02-14T16:51:27;101827.53;;;8.28;67.45
21863;BME280;11096;51.338;12.524;2023-02-14T16:53:56;101828.81;;;8.15;67.82
21863;BME280;11096;51.338;12.524;2023-02-14T16:56:41;101835.78;;;8.13;67.96
21863;BME280;11096;51.338;12.524;2023-02-14T16:59:08;101831.50;;;7.84;68.63
21863;BME280;11096;51.338;12.524;2023-02-14T17:01:33;101828.44;;;8.27;67.87
21863;BME280;11096;51.338;12.524;2023-02-14T17:03:59;101830.16;;;8.00;67.79
21863;BME280;11096;51.338;12.524;2023-02-14T17:06:26;101834.56;;;7.96;67.66
21863;BME280;11096;51.338;12.524;2023-02-14T17:08:53;101833.06;;;8.17;68.22
21863;BME280;11096;51.338;12.524;2023-02-14T17:11:22;101841.66;;;7.90;68.01
21863;BME280;11096;51.338;12.524;2023-02-14T17:13:49;101832.97;;;7.92;68.11
21863;BME280;11096;51.338;12.524;2023-02-14T17:16:16;101835.53;;;7.92;67.79
21863;BME280;11096;51.338;12.524;2023-02-14T17:18:45;101840.56;;;7.70;67.64
21863;BME280;11096;51.338;12.524;2023-02-14T17:21:12;101835.94;;;7.50;68.09
21863;BME280;11096;51.338;12.524;2023-02-14T17:23:38;101830.84;;;7.47;68.64
21863;BME280;11096;51.338;12.524;2023-02-14T17:26:03;101833.66;;;7.40;69.40
21863;BME280;11096;51.338;12.524;2023-02-14T17:28:30;101823.88;;;7.51;68.95
21863;BME280;11096;51.338;12.524;2023-02-14T17:30:55;101834.59;;;7.37;69.03
21863;BME280;11096;51.338;12.524;2023-02-14T17:33:21;101832.22;;;7.31;69.29
21863;BME280;11096;51.338;12.524;2023-02-14T17:35:47;101837.72;;;7.19;69.25
21863;BME280;11096;51.338;12.524;2023-02-14T17:38:13;101843.03;;;7.13;69.48
21863;BME280;11096;51.338;12.524;2023-02-14T17:40:39;101843.84;;;7.15;69.78
21863;BME280;11096;51.338;12.524;2023-02-14T17:43:04;101839.41;;;7.20;69.74
21863;BME280;11096;51.338;12.524;2023-02-14T17:45:30;101838.25;;;6.99;70.11
21863;BME280;11096;51.338;12.524;2023-02-14T17:47:55;101843.34;;;7.02;69.77
21863;BME280;11096;51.338;12.524;2023-02-14T17:50:20;101845.06;;;7.01;69.73
21863;BME280;11096;51.338;12.524;2023-02-14T17:52:46;101840.47;;;7.13;69.45
21863;BME280;11096;51.338;12.524;2023-02-14T17:55:12;101834.69;;;7.03;69.37
21863;BME280;11096;51.338;12.524;2023-02-14T17:57:38;101825.28;;;7.00;69.36
21863;BME280;11096;51.338;12.524;2023-02-14T18:00:05;101825.69;;;6.85;69.52
21863;BME280;11096;51.338;12.524;2023-02-14T18:02:31;101821.94;;;6.64;70.08
21863;BME280;11096;51.338;12.524;2023-02-14T18:04:56;101817.69;;;6.61;70.11
21863;BME280;11096;51.338;12.524;2023-02-14T18:07:23;101830.50;;;6.64;70.27
21863;BME280;11096;51.338;12.524;2023-02-14T18:09:49;101829.06;;;6.54;70.07
21863;BME280;11096;51.338;12.524;2023-02-14T18:12:14;101819.41;;;6.27;70.23
21863;BME280;11096;51.338;12.524;2023-02-14T18:14:40;101816.41;;;6.45;69.82
21863;BME280;11096;51.338;12.524;2023-02-14T18:17:05;101815.78;;;6.35;69.96
21863;BME280;11096;51.338;12.524;2023-02-14T18:19:31;101813.44;;;6.24;70.08
21863;BME280;11096;51.338;12.524;2023-02-14T18:21:56;101819.72;;;6.14;70.24
21863;BME280;11096;51.338;12.524;2023-02-14T18:24:22;101818.13;;;6.09;71.09
21863;BME280;11096;51.338;12.524;2023-02-14T18:26:47;101810.50;;;6.04;70.99
21863;BME280;11096;51.338;12.524;2023-02-14T18:29:12;101810.41;;;6.07;70.78
21863;BME280;11096;51.338;12.524;2023-02-14T18:31:40;101805.06;;;6.15;71.41
21863;BME280;11096;51.338;12.524;2023-02-14T18:34:06;101798.31;;;6.09;70.92
21863;BME280;11096;51.338;12.524;2023-02-14T18:36:34;101801.63;;;6.14;70.67
21863;BME280;11096;51.338;12.524;2023-02-14T18:38:59;101801.56;;;6.17;70.77
21863;BME280;11096;51.338;12.524;2023-02-14T18:41:25;101798.31;;;6.09;71.03
21863;BME280;11096;51.338;12.524;2023-02-14T18:43:51;101799.13;;;6.11;70.85
21863;BME280;11096;51.338;12.524;2023-02-14T18:46:19;101792.34;;;6.07;71.21
21863;BME280;11096;51.338;12.524;2023-02-14T18:48:45;101795.94;;;6.00;70.86
21863;BME280;11096;51.338;12.524;2023-02-14T18:53:50;101781.50;;;5.91;71.52
21863;BME280;11096;51.338;12.524;2023-02-14T18:56:21;101781.44;;;5.96;72.13
21863;BME280;11096;51.338;12.524;2023-02-14T18:58:49;101778.81;;;5.97;72.81
21863;BME280;11096;51.338;12.524;2023-02-14T19:01:19;101772.00;;;5.93;72.47
21863;BME280;11096;51.338;12.524;2023-02-14T19:03:45;101772.97;;;5.88;71.90
21863;BME280;11096;51.338;12.524;2023-02-14T19:06:14;101771.38;;;5.84;71.96
21863;BME280;11096;51.338;12.524;2023-02-14T19:08:40;101762.81;;;5.81;72.04
21863;BME280;11096;51.338;12.524;2023-02-14T19:11:17;101767.13;;;5.81;72.04
21863;BME280;11096;51.338;12.524;2023-02-14T19:13:51;101765.97;;;5.93;71.90
21863;BME280;11096;51.338;12.524;2023-02-14T19:16:20;101760.16;;;5.85;71.81
21863;BME280;11096;51.338;12.524;2023-02-14T19:18:47;101755.38;;;5.68;71.36
21863;BME280;11096;51.338;12.524;2023-02-14T19:21:19;101750.88;;;5.77;71.08
21863;BME280;11096;51.338;12.524;2023-02-14T19:23:45;101754.66;;;5.61;71.02
21863;BME280;11096;51.338;12.524;2023-02-14T19:26:29;101755.66;;;5.55;71.37
21863;BME280;11096;51.338;12.524;2023-02-14T19:28:58;101755.34;;;5.30;71.14
21863;BME280;11096;51.338;12.524;2023-02-14T19:31:24;101750.34;;;5.24;71.85
21863;BME280;11096;51.338;12.524;2023-02-14T19:33:50;101748.53;;;5.26;72.33
21863;BME280;11096;51.338;12.524;2023-02-14T19:36:17;101742.81;;;5.13;72.92
21863;BME280;11096;51.338;12.524;2023-02-14T19:38:45;101741.81;;;5.19;73.27
21863;BME280;11096;51.338;12.524;2023-02-14T19:41:13;101732.78;;;5.42;72.36
21863;BME280;11096;51.338;12.524;2023-02-14T19:43:41;101735.41;;;5.38;71.90
21863;BME280;11096;51.338;12.524;2023-02-14T19:46:06;101738.13;;;5.32;71.89
21863;BME280;11096;51.338;12.524;2023-02-14T19:48:32;101726.84;;;4.96;71.36
21863;BME280;11096;51.338;12.524;2023-02-14T19:50:57;101728.09;;;4.77;71.80
21863;BME280;11096;51.338;12.524;2023-02-14T19:53:25;101731.63;;;4.71;72.71
21863;BME280;11096;51.338;12.524;2023-02-14T19:55:50;101726.56;;;4.66;72.55
21863;BME280;11096;51.338;12.524;2023-02-14T19:58:15;101730.16;;;4.58;72.93
21863;BME280;11096;51.338;12.524;2023-02-14T20:00:41;101727.03;;;4.40;73.07
21863;BME280;11096;51.338;12.524;2023-02-14T20:03:06;101727.63;;;4.55;73.21
21863;BME280;11096;51.338;12.524;2023-02-14T20:05:38;101723.56;;;4.43;73.13
21863;BME280;11096;51.338;12.524;2023-02-14T20:08:04;101725.00;;;4.58;72.47
21863;BME280;11096;51.338;12.524;2023-02-14T20:10:30;101714.56;;;4.19;73.40
21863;BME280;11096;51.338;12.524;2023-02-14T20:12:55;101722.50;;;4.05;73.98
21863;BME280;11096;51.338;12.524;2023-02-14T20:15:21;101714.78;;;4.06;74.70
21863;BME280;11096;51.338;12.524;2023-02-14T20:17:46;101718.34;;;4.92;72.95
21863;BME280;11096;51.338;12.524;2023-02-14T20:20:12;101709.25;;;4.28;72.87
21863;BME280;11096;51.338;12.524;2023-02-14T20:22:39;101715.34;;;4.22;73.78
21863;BME280;11096;51.338;12.524;2023-02-14T20:25:05;101716.09;;;4.29;73.99
21863;BME280;11096;51.338;12.524;2023-02-14T20:27:33;101711.81;;;4.28;73.81
21863;BME280;11096;51.338;12.524;2023-02-14T20:29:58;101705.19;;;4.16;74.08
21863;BME280;11096;51.338;12.524;2023-02-14T20:32:24;101702.78;;;4.05;74.14
21863;BME280;11096;51.338;12.524;2023-02-14T20:34:49;101700.06;;;4.13;74.85
21863;BME280;11096;51.338;12.524;2023-02-14T20:37:16;101697.50;;;4.13;75.46
21863;BME280;11096;51.338;12.524;2023-02-14T20:39:41;101704.22;;;4.22;75.81
21863;BME280;11096;51.338;12.524;2023-02-14T20:42:07;101699.84;;;4.25;75.84
21863;BME280;11096;51.338;12.524;2023-02-14T20:44:33;101697.53;;;4.12;75.42
21863;BME280;11096;51.338;12.524;2023-02-14T20:46:58;101694.16;;;4.08;75.86
21863;BME280;11096;51.338;12.524;2023-02-14T20:49:25;101698.09;;;3.76;76.87
21863;BME280;11096;51.338;12.524;2023-02-14T20:51:52;101688.94;;;4.13;76.23
21863;BME280;11096;51.338;12.524;2023-02-14T20:54:19;101697.53;;;4.12;75.76
21863;BME280;11096;51.338;12.524;2023-02-14T20:56:45;101690.78;;;4.04;75.91
21863;BME280;11096;51.338;12.524;2023-02-14T20:59:11;101685.59;;;4.06;75.87
21863;BME280;11096;51.338;12.524;2023-02-14T21:01:37;101678.75;;;4.06;75.74
21863;BME280;11096;51.338;12.524;2023-02-14T21:04:03;101688.94;;;4.13;75.37
21863;BME280;11096;51.338;12.524;2023-02-14T21:06:30;101686.28;;;4.17;75.20
21863;BME280;11096;51.338;12.524;2023-02-14T21:08:57;101687.94;;;4.20;75.36
21863;BME280;11096;51.338;12.524;2023-02-14T21:11:23;101689.38;;;4.36;75.07
21863;BME280;11096;51.338;12.524;2023-02-14T21:13:53;101694.59;;;4.32;74.14
21863;BME280;11096;51.338;12.524;2023-02-14T21:16:19;101691.34;;;4.22;73.97
21863;BME280;11096;51.338;12.524;2023-02-14T21:18:47;101685.38;;;4.20;73.88
21863;BME280;11096;51.338;12.524;2023-02-14T21:21:30;101684.63;;;4.13;74.21
21863;BME280;11096;51.338;12.524;2023-02-14T21:23:59;101674.53;;;4.04;74.02
21863;BME280;11096;51.338;12.524;2023-02-14T21:26:25;101675.56;;;3.92;74.19
21863;BME280;11096;51.338;12.524;2023-02-14T21:28:50;101662.50;;;4.03;74.19
21863;BME280;11096;51.338;12.524;2023-02-14T21:31:17;101659.88;;;4.07;74.14
21863;BME280;11096;51.338;12.524;2023-02-14T21:33:47;101665.63;;;4.22;73.46
21863;BME280;11096;51.338;12.524;2023-02-14T21:36:15;101662.97;;;4.25;73.00
21863;BME280;11096;51.338;12.524;2023-02-14T21:38:41;101662.97;;;4.25;72.55
21863;BME280;11096;51.338;12.524;2023-02-14T21:41:09;101669.66;;;4.35;72.54
21863;BME280;11096;51.338;12.524;2023-02-14T21:43:37;101659.34;;;4.35;72.50
21863;BME280;11096;51.338;12.524;2023-02-14T21:46:05;101657.91;;;4.20;72.47
21863;BME280;11096;51.338;12.524;2023-02-14T21:48:31;101658.81;;;4.18;72.92
21863;BME280;11096;51.338;12.524;2023-02-14T21:51:15;101666.72;;;3.54;73.95
21863;BME280;11096;51.338;12.524;2023-02-14T21:53:41;101662.41;;;3.59;74.58
21863;BME280;11096;51.338;12.524;2023-02-14T21:56:09;101668.38;;;3.60;73.99
21863;BME280;11096;51.338;12.524;2023-02-14T21:58:38;101665.75;;;3.64;74.35
21863;BME280;11096;51.338;12.524;2023-02-14T22:01:05;101668.53;;;3.49;73.82
21863;BME280;11096;51.338;12.524;2023-02-14T22:03:31;101662.66;;;3.41;73.95
21863;BME280;11096;51.338;12.524;2023-02-14T22:06:05;101653.22;;;3.41;73.92
21863;BME280;11096;51.338;12.524;2023-02-14T22:08:31;101661.09;;;3.31;73.90
21863;BME280;11096;51.338;12.524;2023-02-14T22:10:57;101651.78;;;3.23;73.67
21863;BME280;11096;51.338;12.524;2023-02-14T22:13:23;101655.38;;;3.12;73.71
21863;BME280;11096;51.338;12.524;2023-02-14T22:15:48;101658.91;;;3.03;73.50
21863;BME280;11096;51.338;12.524;2023-02-14T22:18:14;101656.13;;;3.18;73.71
21863;BME280;11096;51.338;12.524;2023-02-14T22:20:40;101651.06;;;3.15;73.31
21863;BME280;11096;51.338;12.524;2023-02-14T22:23:05;101653.56;;;3.18;73.20
21863;BME280;11096;51.338;12.524;2023-02-14T22:25:31;101642.59;;;3.07;73.21
21863;BME280;11096;51.338;12.524;2023-02-14T22:27:56;101637.50;;;3.04;73.13
21863;BME280;11096;51.338;12.524;2023-02-14T22:30:22;101640.97;;;3.00;73.28
21863;BME280;11096;51.338;12.524;2023-02-14T22:32:47;101640.66;;;3.21;73.02
21863;BME280;11096;51.338;12.524;2023-02-14T22:35:13;101635.19;;;3.44;72.62
21863;BME280;11096;51.338;12.524;2023-02-14T22:37:38;101641.19;;;3.43;72.19
21863;BME280;11096;51.338;12.524;2023-02-14T22:40:05;101638.50;;;3.51;72.04
21863;BME280;11096;51.338;12.524;2023-02-14T22:42:31;101635.19;;;3.44;71.80
21863;BME280;11096;51.338;12.524;2023-02-14T22:44:56;101632.66;;;3.41;71.55
21863;BME280;11096;51.338;12.524;2023-02-14T22:47:21;101635.47;;;3.28;72.35
21863;BME280;11096;51.338;12.524;2023-02-14T22:49:48;101631.94;;;3.33;71.88
21863;BME280;11096;51.338;12.524;2023-02-14T22:52:13;101621.78;;;3.24;72.43
21863;BME280;11096;51.338;12.524;2023-02-14T22:54:38;101613.25;;;3.22;72.45
21863;BME280;11096;51.338;12.524;2023-02-14T22:57:04;101608.88;;;3.30;71.97
21863;BME280;11096;51.338;12.524;2023-02-14T22:59:29;101616.63;;;3.26;72.41
21863;BME280;11096;51.338;12.524;2023-02-14T23:01:56;101613.28;;;3.20;71.80
21863;BME280;11096;51.338;12.524;2023-02-14T23:04:22;101612.81;;;2.95;72.08
21863;BME280;11096;51.338;12.524;2023-02-14T23:06:50;101625.91;;;2.72;72.69
21863;BME280;11096;51.338;12.524;2023-02-14T23:09:16;101620.09;;;2.60;73.82
21863;BME280;11096;51.338;12.524;2023-02-14T23:11:43;101613.34;;;2.51;73.64
21863;BME280;11096;51.338;12.524;2023-02-14T23:14:10;101619.84;;;2.79;73.86
21863;BME280;11096;51.338;12.524;2023-02-14T23:16:54;101627.09;;;2.45;74.27
21863;BME280;11096;51.338;12.524;2023-02-14T23:19:49;101628.69;;;2.55;74.29
21863;BME280;11096;51.338;12.524;2023-02-14T23:22:38;101625.97;;;2.68;75.11
21863;BME280;11096;51.338;12.524;2023-02-14T23:25:07;101623.56;;;2.57;75.43
21863;BME280;11096;51.338;12.524;2023-02-14T23:27:38;101628.69;;;2.58;75.55
21863;BME280;11096;51.338;12.524;2023-02-14T23:30:06;101627.00;;;2.54;75.26
21863;BME280;11096;51.338;12.524;2023-02-14T23:32:32;101626.13;;;2.57;75.25
21863;BME280;11096;51.338;12.524;2023-02-14T23:34:57;101618.53;;;2.48;75.04
21863;BME280;11096;51.338;12.524;2023-02-14T23:37:23;101616.06;;;2.39;75.23
21863;BME280;11096;51.338;12.524;2023-02-14T23:39:49;101614.47;;;2.30;75.73
21863;BME280;11096;51.338;12.524;2023-02-14T23:42:15;101611.84;;;2.34;76.11
21863;BME280;11096;51.338;12.524;2023-02-14T23:44:44;101617.63;;;2.52;76.86
21863;BME280;11096;51.338;12.524;2023-02-14T23:47:11;101614.31;;;2.41;76.14
21863;BME280;11096;51.338;12.524;2023-02-14T23:49:39;101616.44;;;2.77;76.13
21863;BME280;11096;51.338;12.524;2023-02-14T23:52:06;101610.28;;;2.91;75.35
21863;BME280;11096;51.338;12.524;2023-02-14T23:54:33;101607.84;;;2.80;75.35
21863;BME280;11096;51.338;12.524;2023-02-14T23:56:58;101601.81;;;2.86;75.86
21863;BME280;11096;51.338;12.524;2023-02-14T23:59:24;101598.91;;;3.07;75.30
